sensor_id;sensor_type;location;lat;lon;timestamp;P1;durP1;ratioP1;P2;durP2;ratioP2
79261;SDS011;68699;48.220;16.358;2023-11-19T00:01:40;6.50;;;5.50;;
79261;SDS011;68699;48.220;16.358;2023-11-19T00:04:06;7.23;;;5.50;;
79261;SDS011;68699;48.220;16.358;2023-11-19T00:06:33;6.97;;;5.90;;
79261;SDS011;68699;48.220;16.358;2023-11-19T00:08:59;7.13;;;5.77;;
79261;SDS011;68699;48.220;16.358;2023-11-19T00:11:25;7.30;;;6.00;;
79261;SDS011;68699;48.220;16.358;2023-11-19T00:13:51;7.53;;;6.20;;
79261;SDS011;68699;48.220;16.358;2023-11-19T00:16:17;7.70;;;6.40;;
79261;SDS011;68699;48.220;16.358;2023-11-19T00:18:43;8.73;;;6.63;;
79261;SDS011;68699;48.220;16.358;2023-11-19T00:21:09;7.30;;;6.20;;
79261;SDS011;68699;48.220;16.358;2023-11-19T00:23:35;7.20;;;6.50;;
79261;SDS011;68699;48.220;16.358;2023-11-19T00:26:02;7.27;;;6.17;;
79261;SDS011;68699;48.220;16.358;2023-11-19T00:28:30;6.80;;;5.97;;
79261;SDS011;68699;48.220;16.358;2023-11-19T00:30:57;6.97;;;6.00;;
79261;SDS011;68699;48.220;16.358;2023-11-19T00:33:22;7.57;;;6.47;;
79261;SDS011;68699;48.220;16.358;2023-11-19T00:35:49;6.77;;;6.07;;
79261;SDS011;68699;48.220;16.358;2023-11-19T00:38:15;8.30;;;7.37;;
79261;SDS011;68699;48.220;16.358;2023-11-19T00:40:41;7.93;;;6.90;;
79261;SDS011;68699;48.220;16.358;2023-11-19T00:43:09;6.70;;;5.90;;
79261;SDS011;68699;48.220;16.358;2023-11-19T00:45:35;7.00;;;6.10;;
79261;SDS011;68699;48.220;16.358;2023-11-19T00:48:01;6.43;;;5.20;;
79261;SDS011;68699;48.220;16.358;2023-11-19T00:50:27;5.67;;;5.07;;
79261;SDS011;68699;48.220;16.358;2023-11-19T00:52:54;6.20;;;5.30;;
79261;SDS011;68699;48.220;16.358;2023-11-19T00:55:20;6.13;;;5.53;;
79261;SDS011;68699;48.220;16.358;2023-11-19T00:57:46;5.70;;;5.20;;
79261;SDS011;68699;48.220;16.358;2023-11-19T01:00:12;6.93;;;5.50;;
79261;SDS011;68699;48.220;16.358;2023-11-19T01:02:46;5.87;;;5.27;;
79261;SDS011;68699;48.220;16.358;2023-11-19T01:05:14;7.00;;;5.77;;
79261;SDS011;68699;48.220;16.358;2023-11-19T01:07:40;6.87;;;5.97;;
79261;SDS011;68699;48.220;16.358;2023-11-19T01:10:06;5.73;;;5.17;;
79261;SDS011;68699;48.220;16.358;2023-11-19T01:12:33;6.93;;;5.40;;
79261;SDS011;68699;48.220;16.358;2023-11-19T01:14:59;6.47;;;5.70;;
79261;SDS011;68699;48.220;16.358;2023-11-19T01:17:26;5.80;;;5.20;;
79261;SDS011;68699;48.220;16.358;2023-11-19T01:19:52;6.13;;;5.53;;
79261;SDS011;68699;48.220;16.358;2023-11-19T01:22:18;7.07;;;5.73;;
79261;SDS011;68699;48.220;16.358;2023-11-19T01:24:44;7.17;;;5.80;;
79261;SDS011;68699;48.220;16.358;2023-11-19T01:27:10;6.33;;;5.67;;
79261;SDS011;68699;48.220;16.358;2023-11-19T01:29:36;7.53;;;5.93;;
79261;SDS011;68699;48.220;16.358;2023-11-19T01:32:03;7.30;;;6.30;;
79261;SDS011;68699;48.220;16.358;2023-11-19T01:34:29;6.40;;;5.80;;
79261;SDS011;68699;48.220;16.358;2023-11-19T01:36:55;5.97;;;5.37;;
79261;SDS011;68699;48.220;16.358;2023-11-19T01:39:21;5.87;;;5.27;;
79261;SDS011;68699;48.220;16.358;2023-11-19T01:41:47;7.53;;;5.97;;
79261;SDS011;68699;48.220;16.358;2023-11-19T01:44:13;6.17;;;5.57;;
79261;SDS011;68699;48.220;16.358;2023-11-19T01:46:43;6.17;;;5.57;;
79261;SDS011;68699;48.220;16.358;2023-11-19T01:49:10;6.27;;;5.17;;
79261;SDS011;68699;48.220;16.358;2023-11-19T01:51:37;5.63;;;5.13;;
79261;SDS011;68699;48.220;16.358;2023-11-19T01:54:03;5.13;;;4.63;;
79261;SDS011;68699;48.220;16.358;2023-11-19T01:56:29;8.93;;;5.17;;
79261;SDS011;68699;48.220;16.358;2023-11-19T01:58:56;6.07;;;4.90;;
79261;SDS011;68699;48.220;16.358;2023-11-19T02:01:22;5.57;;;5.07;;
79261;SDS011;68699;48.220;16.358;2023-11-19T02:03:49;5.90;;;5.13;;
79261;SDS011;68699;48.220;16.358;2023-11-19T02:06:15;5.77;;;5.27;;
79261;SDS011;68699;48.220;16.358;2023-11-19T02:08:41;5.93;;;5.33;;
79261;SDS011;68699;48.220;16.358;2023-11-19T02:11:08;5.53;;;5.03;;
79261;SDS011;68699;48.220;16.358;2023-11-19T02:13:34;5.70;;;5.13;;
79261;SDS011;68699;48.220;16.358;2023-11-19T02:16:03;6.80;;;5.70;;
79261;SDS011;68699;48.220;16.358;2023-11-19T02:18:29;5.83;;;5.07;;
79261;SDS011;68699;48.220;16.358;2023-11-19T02:20:55;5.90;;;5.30;;
79261;SDS011;68699;48.220;16.358;2023-11-19T02:23:22;5.90;;;5.30;;
79261;SDS011;68699;48.220;16.358;2023-11-19T02:26:02;5.97;;;5.43;;
79261;SDS011;68699;48.220;16.358;2023-11-19T02:28:30;5.87;;;5.27;;
79261;SDS011;68699;48.220;16.358;2023-11-19T02:30:57;5.60;;;5.10;;
79261;SDS011;68699;48.220;16.358;2023-11-19T02:33:23;6.07;;;5.47;;
79261;SDS011;68699;48.220;16.358;2023-11-19T02:35:49;5.63;;;4.53;;
79261;SDS011;68699;48.220;16.358;2023-11-19T02:38:16;5.20;;;4.60;;
79261;SDS011;68699;48.220;16.358;2023-11-19T02:40:42;6.30;;;5.70;;
79261;SDS011;68699;48.220;16.358;2023-11-19T02:43:08;5.50;;;4.87;;
79261;SDS011;68699;48.220;16.358;2023-11-19T02:45:34;5.37;;;4.83;;
79261;SDS011;68699;48.220;16.358;2023-11-19T02:48:00;4.70;;;4.30;;
79261;SDS011;68699;48.220;16.358;2023-11-19T02:50:27;5.13;;;4.73;;
79261;SDS011;68699;48.220;16.358;2023-11-19T02:52:53;5.73;;;4.93;;
79261;SDS011;68699;48.220;16.358;2023-11-19T02:55:21;5.77;;;4.87;;
79261;SDS011;68699;48.220;16.358;2023-11-19T02:57:48;4.87;;;4.47;;
79261;SDS011;68699;48.220;16.358;2023-11-19T03:00:39;5.10;;;4.70;;
79261;SDS011;68699;48.220;16.358;2023-11-19T03:03:12;5.23;;;4.83;;
79261;SDS011;68699;48.220;16.358;2023-11-19T03:05:51;5.73;;;5.23;;
79261;SDS011;68699;48.220;16.358;2023-11-19T03:08:17;5.27;;;4.77;;
79261;SDS011;68699;48.220;16.358;2023-11-19T03:10:43;4.87;;;4.47;;
79261;SDS011;68699;48.220;16.358;2023-11-19T03:13:10;4.80;;;4.40;;
79261;SDS011;68699;48.220;16.358;2023-11-19T03:15:40;5.20;;;4.80;;
79261;SDS011;68699;48.220;16.358;2023-11-19T03:18:06;5.23;;;4.73;;
79261;SDS011;68699;48.220;16.358;2023-11-19T03:20:32;5.30;;;4.83;;
79261;SDS011;68699;48.220;16.358;2023-11-19T03:22:59;4.90;;;4.40;;
79261;SDS011;68699;48.220;16.358;2023-11-19T03:25:26;5.27;;;4.80;;
79261;SDS011;68699;48.220;16.358;2023-11-19T03:27:58;5.10;;;4.63;;
79261;SDS011;68699;48.220;16.358;2023-11-19T03:30:24;5.50;;;4.60;;
79261;SDS011;68699;48.220;16.358;2023-11-19T03:32:50;4.90;;;4.40;;
79261;SDS011;68699;48.220;16.358;2023-11-19T03:35:16;4.60;;;4.20;;
79261;SDS011;68699;48.220;16.358;2023-11-19T03:37:42;5.63;;;4.67;;
79261;SDS011;68699;48.220;16.358;2023-11-19T03:40:08;4.97;;;4.50;;
79261;SDS011;68699;48.220;16.358;2023-11-19T03:42:37;5.10;;;4.60;;
79261;SDS011;68699;48.220;16.358;2023-11-19T03:45:07;4.77;;;4.37;;
79261;SDS011;68699;48.220;16.358;2023-11-19T03:47:36;4.57;;;4.17;;
79261;SDS011;68699;48.220;16.358;2023-11-19T03:50:02;4.97;;;4.40;;
79261;SDS011;68699;48.220;16.358;2023-11-19T03:52:29;5.20;;;4.70;;
79261;SDS011;68699;48.220;16.358;2023-11-19T03:54:55;5.33;;;4.83;;
79261;SDS011;68699;48.220;16.358;2023-11-19T03:57:22;5.07;;;4.33;;
79261;SDS011;68699;48.220;16.358;2023-11-19T03:59:48;5.13;;;4.63;;
79261;SDS011;68699;48.220;16.358;2023-11-19T04:02:14;5.50;;;4.50;;
79261;SDS011;68699;48.220;16.358;2023-11-19T04:04:40;6.30;;;4.40;;
79261;SDS011;68699;48.220;16.358;2023-11-19T04:07:06;4.77;;;4.37;;
79261;SDS011;68699;48.220;16.358;2023-11-19T04:09:32;5.30;;;4.00;;
79261;SDS011;68699;48.220;16.358;2023-11-19T04:11:59;6.43;;;4.50;;
79261;SDS011;68699;48.220;16.358;2023-11-19T04:14:25;5.17;;;4.67;;
79261;SDS011;68699;48.220;16.358;2023-11-19T04:16:52;4.83;;;4.33;;
79261;SDS011;68699;48.220;16.358;2023-11-19T04:19:18;5.20;;;4.70;;
79261;SDS011;68699;48.220;16.358;2023-11-19T04:21:44;4.43;;;4.03;;
79261;SDS011;68699;48.220;16.358;2023-11-19T04:24:11;5.17;;;4.77;;
79261;SDS011;68699;48.220;16.358;2023-11-19T04:26:43;5.20;;;4.70;;
79261;SDS011;68699;48.220;16.358;2023-11-19T04:29:13;4.90;;;4.40;;
79261;SDS011;68699;48.220;16.358;2023-11-19T04:31:40;4.67;;;4.27;;
79261;SDS011;68699;48.220;16.358;2023-11-19T04:34:06;4.83;;;4.43;;
79261;SDS011;68699;48.220;16.358;2023-11-19T04:36:33;5.67;;;5.17;;
79261;SDS011;68699;48.220;16.358;2023-11-19T04:38:59;4.93;;;4.53;;
79261;SDS011;68699;48.220;16.358;2023-11-19T04:41:26;4.80;;;4.40;;
79261;SDS011;68699;48.220;16.358;2023-11-19T04:43:55;5.37;;;4.83;;
79261;SDS011;68699;48.220;16.358;2023-11-19T04:46:21;4.87;;;4.47;;
79261;SDS011;68699;48.220;16.358;2023-11-19T04:48:48;5.13;;;4.73;;
79261;SDS011;68699;48.220;16.358;2023-11-19T04:51:15;6.07;;;5.57;;
79261;SDS011;68699;48.220;16.358;2023-11-19T04:53:41;5.60;;;5.10;;
79261;SDS011;68699;48.220;16.358;2023-11-19T04:56:10;5.30;;;4.80;;
79261;SDS011;68699;48.220;16.358;2023-11-19T04:58:38;4.83;;;4.43;;
79261;SDS011;68699;48.220;16.358;2023-11-19T05:01:04;5.27;;;4.83;;
79261;SDS011;68699;48.220;16.358;2023-11-19T05:03:30;4.90;;;4.50;;
79261;SDS011;68699;48.220;16.358;2023-11-19T05:05:56;5.47;;;4.97;;
79261;SDS011;68699;48.220;16.358;2023-11-19T05:08:22;5.07;;;4.57;;
79261;SDS011;68699;48.220;16.358;2023-11-19T05:10:49;5.87;;;5.13;;
79261;SDS011;68699;48.220;16.358;2023-11-19T05:13:15;6.00;;;5.47;;
79261;SDS011;68699;48.220;16.358;2023-11-19T05:15:41;5.80;;;5.30;;
79261;SDS011;68699;48.220;16.358;2023-11-19T05:18:07;5.43;;;4.80;;
79261;SDS011;68699;48.220;16.358;2023-11-19T05:20:34;5.27;;;4.77;;
79261;SDS011;68699;48.220;16.358;2023-11-19T05:23:00;5.67;;;5.17;;
79261;SDS011;68699;48.220;16.358;2023-11-19T05:25:26;5.70;;;5.00;;
79261;SDS011;68699;48.220;16.358;2023-11-19T05:27:52;5.87;;;5.30;;
79261;SDS011;68699;48.220;16.358;2023-11-19T05:30:19;6.10;;;5.50;;
79261;SDS011;68699;48.220;16.358;2023-11-19T05:32:45;6.93;;;5.40;;
79261;SDS011;68699;48.220;16.358;2023-11-19T05:35:11;6.43;;;5.73;;
79261;SDS011;68699;48.220;16.358;2023-11-19T05:37:37;6.07;;;5.47;;
79261;SDS011;68699;48.220;16.358;2023-11-19T05:40:03;5.90;;;5.30;;
79261;SDS011;68699;48.220;16.358;2023-11-19T05:42:34;5.57;;;5.07;;
79261;SDS011;68699;48.220;16.358;2023-11-19T05:45:03;6.63;;;5.40;;
79261;SDS011;68699;48.220;16.358;2023-11-19T05:47:29;6.70;;;5.73;;
79261;SDS011;68699;48.220;16.358;2023-11-19T05:49:55;5.70;;;5.20;;
79261;SDS011;68699;48.220;16.358;2023-11-19T05:52:21;7.23;;;5.60;;
79261;SDS011;68699;48.220;16.358;2023-11-19T05:54:48;6.03;;;5.43;;
79261;SDS011;68699;48.220;16.358;2023-11-19T05:57:16;6.17;;;5.57;;
79261;SDS011;68699;48.220;16.358;2023-11-19T05:59:48;6.80;;;6.13;;
79261;SDS011;68699;48.220;16.358;2023-11-19T06:02:14;6.07;;;5.33;;
79261;SDS011;68699;48.220;16.358;2023-11-19T06:04:41;6.40;;;5.80;;
79261;SDS011;68699;48.220;16.358;2023-11-19T06:07:09;6.37;;;5.77;;
79261;SDS011;68699;48.220;16.358;2023-11-19T06:09:35;6.53;;;5.93;;
79261;SDS011;68699;48.220;16.358;2023-11-19T06:12:01;7.07;;;6.37;;
79261;SDS011;68699;48.220;16.358;2023-11-19T06:14:27;6.80;;;6.13;;
79261;SDS011;68699;48.220;16.358;2023-11-19T06:16:53;6.77;;;6.03;;
79261;SDS011;68699;48.220;16.358;2023-11-19T06:19:19;6.90;;;6.20;;
79261;SDS011;68699;48.220;16.358;2023-11-19T06:21:45;7.67;;;6.93;;
79261;SDS011;68699;48.220;16.358;2023-11-19T06:24:11;7.63;;;6.93;;
79261;SDS011;68699;48.220;16.358;2023-11-19T06:26:37;7.60;;;6.83;;
79261;SDS011;68699;48.220;16.358;2023-11-19T06:29:04;9.63;;;7.50;;
79261;SDS011;68699;48.220;16.358;2023-11-19T06:31:30;7.27;;;6.57;;
79261;SDS011;68699;48.220;16.358;2023-11-19T06:33:56;7.80;;;7.10;;
79261;SDS011;68699;48.220;16.358;2023-11-19T06:36:22;7.57;;;6.87;;
79261;SDS011;68699;48.220;16.358;2023-11-19T06:38:48;8.17;;;7.33;;
79261;SDS011;68699;48.220;16.358;2023-11-19T06:41:14;7.77;;;6.97;;
79261;SDS011;68699;48.220;16.358;2023-11-19T06:43:40;7.83;;;7.03;;
79261;SDS011;68699;48.220;16.358;2023-11-19T06:46:14;7.83;;;7.13;;
79261;SDS011;68699;48.220;16.358;2023-11-19T06:48:40;7.17;;;6.47;;
79261;SDS011;68699;48.220;16.358;2023-11-19T06:51:07;6.67;;;5.97;;
79261;SDS011;68699;48.220;16.358;2023-11-19T06:53:34;6.70;;;6.10;;
79261;SDS011;68699;48.220;16.358;2023-11-19T06:56:01;6.73;;;5.80;;
79261;SDS011;68699;48.220;16.358;2023-11-19T06:58:29;8.17;;;6.10;;
79261;SDS011;68699;48.220;16.358;2023-11-19T07:00:55;7.13;;;6.43;;
79261;SDS011;68699;48.220;16.358;2023-11-19T07:03:20;7.30;;;6.37;;
79261;SDS011;68699;48.220;16.358;2023-11-19T07:05:46;7.87;;;6.80;;
79261;SDS011;68699;48.220;16.358;2023-11-19T07:08:13;7.47;;;6.40;;
79261;SDS011;68699;48.220;16.358;2023-11-19T07:10:39;7.97;;;6.73;;
79261;SDS011;68699;48.220;16.358;2023-11-19T07:13:05;7.67;;;6.87;;
79261;SDS011;68699;48.220;16.358;2023-11-19T07:15:31;7.50;;;6.80;;
79261;SDS011;68699;48.220;16.358;2023-11-19T07:17:57;7.60;;;6.83;;
79261;SDS011;68699;48.220;16.358;2023-11-19T07:20:24;8.37;;;7.30;;
79261;SDS011;68699;48.220;16.358;2023-11-19T07:22:52;8.53;;;7.70;;
79261;SDS011;68699;48.220;16.358;2023-11-19T07:25:20;7.47;;;6.70;;
79261;SDS011;68699;48.220;16.358;2023-11-19T07:27:46;7.17;;;6.50;;
79261;SDS011;68699;48.220;16.358;2023-11-19T07:30:13;7.63;;;6.83;;
79261;SDS011;68699;48.220;16.358;2023-11-19T07:32:39;7.83;;;6.70;;
79261;SDS011;68699;48.220;16.358;2023-11-19T07:35:05;6.90;;;6.30;;
79261;SDS011;68699;48.220;16.358;2023-11-19T07:37:31;6.80;;;6.20;;
79261;SDS011;68699;48.220;16.358;2023-11-19T07:39:57;7.07;;;6.43;;
79261;SDS011;68699;48.220;16.358;2023-11-19T07:42:23;7.40;;;6.70;;
79261;SDS011;68699;48.220;16.358;2023-11-19T07:44:50;7.43;;;6.73;;
79261;SDS011;68699;48.220;16.358;2023-11-19T07:47:16;7.43;;;6.73;;
79261;SDS011;68699;48.220;16.358;2023-11-19T07:49:42;7.43;;;6.73;;
79261;SDS011;68699;48.220;16.358;2023-11-19T07:52:09;7.57;;;6.83;;
79261;SDS011;68699;48.220;16.358;2023-11-19T07:54:35;7.90;;;7.20;;
79261;SDS011;68699;48.220;16.358;2023-11-19T07:57:01;6.87;;;6.20;;
79261;SDS011;68699;48.220;16.358;2023-11-19T07:59:27;7.73;;;6.93;;
79261;SDS011;68699;48.220;16.358;2023-11-19T08:01:53;7.00;;;6.40;;
79261;SDS011;68699;48.220;16.358;2023-11-19T08:04:19;7.47;;;6.67;;
79261;SDS011;68699;48.220;16.358;2023-11-19T08:06:44;7.23;;;6.60;;
79261;SDS011;68699;48.220;16.358;2023-11-19T08:09:11;7.57;;;6.80;;
79261;SDS011;68699;48.220;16.358;2023-11-19T08:11:42;7.73;;;6.90;;
79261;SDS011;68699;48.220;16.358;2023-11-19T08:14:09;7.40;;;6.70;;
79261;SDS011;68699;48.220;16.358;2023-11-19T08:16:35;7.93;;;7.23;;
79261;SDS011;68699;48.220;16.358;2023-11-19T08:19:02;7.30;;;6.60;;
79261;SDS011;68699;48.220;16.358;2023-11-19T08:21:28;6.83;;;6.23;;
79261;SDS011;68699;48.220;16.358;2023-11-19T08:23:54;6.93;;;6.23;;
79261;SDS011;68699;48.220;16.358;2023-11-19T08:26:20;6.53;;;5.93;;
79261;SDS011;68699;48.220;16.358;2023-11-19T08:28:46;7.27;;;6.57;;
79261;SDS011;68699;48.220;16.358;2023-11-19T08:31:12;7.57;;;6.87;;
79261;SDS011;68699;48.220;16.358;2023-11-19T08:33:38;6.73;;;6.13;;
79261;SDS011;68699;48.220;16.358;2023-11-19T08:36:04;8.17;;;7.37;;
79261;SDS011;68699;48.220;16.358;2023-11-19T08:38:31;8.83;;;7.37;;
79261;SDS011;68699;48.220;16.358;2023-11-19T08:40:57;6.83;;;6.13;;
79261;SDS011;68699;48.220;16.358;2023-11-19T08:43:25;7.50;;;6.80;;
79261;SDS011;68699;48.220;16.358;2023-11-19T08:45:51;6.53;;;5.93;;
79261;SDS011;68699;48.220;16.358;2023-11-19T08:48:17;7.43;;;6.57;;
79261;SDS011;68699;48.220;16.358;2023-11-19T08:50:43;7.40;;;6.70;;
79261;SDS011;68699;48.220;16.358;2023-11-19T08:53:09;6.93;;;6.33;;
79261;SDS011;68699;48.220;16.358;2023-11-19T08:55:36;6.67;;;6.07;;
79261;SDS011;68699;48.220;16.358;2023-11-19T08:58:02;6.57;;;5.90;;
79261;SDS011;68699;48.220;16.358;2023-11-19T09:00:28;6.93;;;6.23;;
79261;SDS011;68699;48.220;16.358;2023-11-19T09:02:54;7.03;;;6.40;;
79261;SDS011;68699;48.220;16.358;2023-11-19T09:05:20;7.07;;;6.47;;
79261;SDS011;68699;48.220;16.358;2023-11-19T09:07:46;8.27;;;7.33;;
79261;SDS011;68699;48.220;16.358;2023-11-19T09:10:14;6.40;;;5.80;;
79261;SDS011;68699;48.220;16.358;2023-11-19T09:12:40;6.93;;;6.23;;
79261;SDS011;68699;48.220;16.358;2023-11-19T09:15:07;6.87;;;6.27;;
79261;SDS011;68699;48.220;16.358;2023-11-19T09:17:35;6.50;;;5.90;;
79261;SDS011;68699;48.220;16.358;2023-11-19T09:20:01;6.30;;;5.70;;
79261;SDS011;68699;48.220;16.358;2023-11-19T09:22:27;6.03;;;5.53;;
79261;SDS011;68699;48.220;16.358;2023-11-19T09:24:53;5.70;;;5.20;;
79261;SDS011;68699;48.220;16.358;2023-11-19T09:27:19;6.07;;;5.50;;
79261;SDS011;68699;48.220;16.358;2023-11-19T09:29:45;5.57;;;5.07;;
79261;SDS011;68699;48.220;16.358;2023-11-19T09:32:13;5.70;;;5.10;;
79261;SDS011;68699;48.220;16.358;2023-11-19T09:34:39;5.10;;;4.70;;
79261;SDS011;68699;48.220;16.358;2023-11-19T09:37:05;5.27;;;4.87;;
79261;SDS011;68699;48.220;16.358;2023-11-19T09:39:32;4.97;;;4.57;;
79261;SDS011;68699;48.220;16.358;2023-11-19T09:41:58;5.50;;;5.00;;
79261;SDS011;68699;48.220;16.358;2023-11-19T09:44:25;5.40;;;4.90;;
79261;SDS011;68699;48.220;16.358;2023-11-19T09:46:51;5.20;;;4.73;;
79261;SDS011;68699;48.220;16.358;2023-11-19T09:49:18;5.80;;;5.30;;
79261;SDS011;68699;48.220;16.358;2023-11-19T09:51:50;5.17;;;4.77;;
79261;SDS011;68699;48.220;16.358;2023-11-19T09:54:16;5.40;;;4.90;;
79261;SDS011;68699;48.220;16.358;2023-11-19T09:56:41;5.33;;;4.83;;
79261;SDS011;68699;48.220;16.358;2023-11-19T09:59:09;5.87;;;5.27;;
79261;SDS011;68699;48.220;16.358;2023-11-19T10:01:35;5.20;;;4.80;;
79261;SDS011;68699;48.220;16.358;2023-11-19T10:04:02;6.17;;;5.57;;
79261;SDS011;68699;48.220;16.358;2023-11-19T10:06:28;5.90;;;5.40;;
79261;SDS011;68699;48.220;16.358;2023-11-19T10:08:55;6.50;;;6.00;;
79261;SDS011;68699;48.220;16.358;2023-11-19T10:11:22;6.67;;;6.07;;
79261;SDS011;68699;48.220;16.358;2023-11-19T10:13:48;6.17;;;5.67;;
79261;SDS011;68699;48.220;16.358;2023-11-19T10:16:14;7.70;;;7.00;;
79261;SDS011;68699;48.220;16.358;2023-11-19T10:18:47;7.83;;;7.13;;
79261;SDS011;68699;48.220;16.358;2023-11-19T10:21:14;7.13;;;6.53;;
79261;SDS011;68699;48.220;16.358;2023-11-19T10:23:49;7.93;;;7.13;;
79261;SDS011;68699;48.220;16.358;2023-11-19T10:26:16;6.43;;;5.83;;
79261;SDS011;68699;48.220;16.358;2023-11-19T10:28:42;8.07;;;7.33;;
79261;SDS011;68699;48.220;16.358;2023-11-19T10:31:11;6.70;;;6.10;;
79261;SDS011;68699;48.220;16.358;2023-11-19T10:33:38;7.37;;;6.77;;
79261;SDS011;68699;48.220;16.358;2023-11-19T10:36:04;8.03;;;7.27;;
79261;SDS011;68699;48.220;16.358;2023-11-19T10:38:30;8.27;;;7.47;;
79261;SDS011;68699;48.220;16.358;2023-11-19T10:40:56;7.47;;;6.83;;
79261;SDS011;68699;48.220;16.358;2023-11-19T10:43:22;7.90;;;7.20;;
79261;SDS011;68699;48.220;16.358;2023-11-19T10:45:48;7.70;;;7.00;;
79261;SDS011;68699;48.220;16.358;2023-11-19T10:48:14;8.40;;;6.97;;
79261;SDS011;68699;48.220;16.358;2023-11-19T10:50:41;7.30;;;6.60;;
79261;SDS011;68699;48.220;16.358;2023-11-19T10:53:08;6.97;;;6.37;;
79261;SDS011;68699;48.220;16.358;2023-11-19T10:55:35;7.33;;;6.67;;
79261;SDS011;68699;48.220;16.358;2023-11-19T10:58:04;6.30;;;5.80;;
79261;SDS011;68699;48.220;16.358;2023-11-19T11:00:32;6.80;;;6.20;;
79261;SDS011;68699;48.220;16.358;2023-11-19T11:03:00;6.30;;;5.80;;
79261;SDS011;68699;48.220;16.358;2023-11-19T11:05:27;6.97;;;6.40;;
79261;SDS011;68699;48.220;16.358;2023-11-19T11:07:55;7.07;;;6.47;;
79261;SDS011;68699;48.220;16.358;2023-11-19T11:10:22;6.60;;;6.00;;
79261;SDS011;68699;48.220;16.358;2023-11-19T11:12:51;6.70;;;6.10;;
79261;SDS011;68699;48.220;16.358;2023-11-19T11:15:24;6.20;;;5.60;;
79261;SDS011;68699;48.220;16.358;2023-11-19T11:17:54;7.27;;;6.63;;
79261;SDS011;68699;48.220;16.358;2023-11-19T11:20:23;6.53;;;5.93;;
79261;SDS011;68699;48.220;16.358;2023-11-19T11:23:12;6.37;;;5.80;;
79261;SDS011;68699;48.220;16.358;2023-11-19T11:31:07;6.10;;;5.60;;
79261;SDS011;68699;48.220;16.358;2023-11-19T11:33:44;6.67;;;5.93;;
79261;SDS011;68699;48.220;16.358;2023-11-19T11:36:24;6.83;;;6.13;;
79261;SDS011;68699;48.220;16.358;2023-11-19T11:38:51;6.70;;;6.10;;
79261;SDS011;68699;48.220;16.358;2023-11-19T11:41:21;6.67;;;6.07;;
79261;SDS011;68699;48.220;16.358;2023-11-19T11:43:49;6.67;;;6.07;;
79261;SDS011;68699;48.220;16.358;2023-11-19T11:49:07;7.27;;;6.57;;
79261;SDS011;68699;48.220;16.358;2023-11-19T11:54:09;9.93;;;6.33;;
79261;SDS011;68699;48.220;16.358;2023-11-19T11:56:38;7.33;;;6.63;;
79261;SDS011;68699;48.220;16.358;2023-11-19T11:59:07;8.17;;;6.77;;
79261;SDS011;68699;48.220;16.358;2023-11-19T12:01:34;7.57;;;6.80;;
79261;SDS011;68699;48.220;16.358;2023-11-19T12:04:00;11.93;;;6.67;;
79261;SDS011;68699;48.220;16.358;2023-11-19T12:06:27;8.13;;;7.27;;
79261;SDS011;68699;48.220;16.358;2023-11-19T12:08:59;7.50;;;6.80;;
79261;SDS011;68699;48.220;16.358;2023-11-19T12:11:25;8.40;;;7.60;;
79261;SDS011;68699;48.220;16.358;2023-11-19T12:13:54;8.20;;;7.40;;
79261;SDS011;68699;48.220;16.358;2023-11-19T12:16:23;7.00;;;6.40;;
79261;SDS011;68699;48.220;16.358;2023-11-19T12:18:49;7.87;;;7.17;;
79261;SDS011;68699;48.220;16.358;2023-11-19T12:21:28;6.70;;;6.10;;
79261;SDS011;68699;48.220;16.358;2023-11-19T12:23:54;8.00;;;6.73;;
79261;SDS011;68699;48.220;16.358;2023-11-19T12:26:30;7.40;;;6.70;;
79261;SDS011;68699;48.220;16.358;2023-11-19T12:28:57;7.43;;;6.73;;
79261;SDS011;68699;48.220;16.358;2023-11-19T12:31:24;7.33;;;6.63;;
79261;SDS011;68699;48.220;16.358;2023-11-19T12:33:51;7.90;;;7.10;;
79261;SDS011;68699;48.220;16.358;2023-11-19T12:36:18;8.53;;;7.53;;
79261;SDS011;68699;48.220;16.358;2023-11-19T12:38:44;8.67;;;7.47;;
79261;SDS011;68699;48.220;16.358;2023-11-19T12:41:11;7.93;;;7.13;;
79261;SDS011;68699;48.220;16.358;2023-11-19T12:43:38;7.77;;;7.07;;
79261;SDS011;68699;48.220;16.358;2023-11-19T12:46:22;8.33;;;7.47;;
79261;SDS011;68699;48.220;16.358;2023-11-19T12:48:50;8.00;;;7.30;;
79261;SDS011;68699;48.220;16.358;2023-11-19T12:51:16;8.17;;;7.37;;
79261;SDS011;68699;48.220;16.358;2023-11-19T12:53:49;8.20;;;7.40;;
79261;SDS011;68699;48.220;16.358;2023-11-19T12:56:17;7.37;;;6.77;;
79261;SDS011;68699;48.220;16.358;2023-11-19T12:58:43;8.63;;;7.73;;
79261;SDS011;68699;48.220;16.358;2023-11-19T13:01:09;9.47;;;8.40;;
79261;SDS011;68699;48.220;16.358;2023-11-19T13:03:36;8.60;;;7.80;;
79261;SDS011;68699;48.220;16.358;2023-11-19T13:06:07;8.83;;;7.77;;
79261;SDS011;68699;48.220;16.358;2023-11-19T13:08:40;8.30;;;7.50;;
79261;SDS011;68699;48.220;16.358;2023-11-19T13:11:06;8.60;;;7.70;;
79261;SDS011;68699;48.220;16.358;2023-11-19T13:13:33;8.43;;;7.57;;
79261;SDS011;68699;48.220;16.358;2023-11-19T13:16:04;8.43;;;7.63;;
79261;SDS011;68699;48.220;16.358;2023-11-19T13:18:34;8.23;;;7.43;;
79261;SDS011;68699;48.220;16.358;2023-11-19T13:21:00;8.87;;;8.03;;
79261;SDS011;68699;48.220;16.358;2023-11-19T13:23:26;10.27;;;8.10;;
79261;SDS011;68699;48.220;16.358;2023-11-19T13:25:52;8.00;;;7.20;;
79261;SDS011;68699;48.220;16.358;2023-11-19T13:28:18;9.53;;;7.97;;
79261;SDS011;68699;48.220;16.358;2023-11-19T13:30:44;9.47;;;7.67;;
79261;SDS011;68699;48.220;16.358;2023-11-19T13:33:10;9.30;;;7.53;;
79261;SDS011;68699;48.220;16.358;2023-11-19T13:35:38;7.87;;;6.90;;
79261;SDS011;68699;48.220;16.358;2023-11-19T13:38:05;8.33;;;7.53;;
79261;SDS011;68699;48.220;16.358;2023-11-19T13:40:33;8.90;;;8.00;;
79261;SDS011;68699;48.220;16.358;2023-11-19T13:42:59;8.70;;;7.80;;
79261;SDS011;68699;48.220;16.358;2023-11-19T13:45:25;8.77;;;7.87;;
79261;SDS011;68699;48.220;16.358;2023-11-19T13:47:51;9.43;;;8.53;;
79261;SDS011;68699;48.220;16.358;2023-11-19T13:50:17;8.80;;;7.90;;
79261;SDS011;68699;48.220;16.358;2023-11-19T13:52:44;8.57;;;7.77;;
79261;SDS011;68699;48.220;16.358;2023-11-19T13:55:12;9.13;;;8.30;;
79261;SDS011;68699;48.220;16.358;2023-11-19T13:57:38;8.83;;;7.93;;
79261;SDS011;68699;48.220;16.358;2023-11-19T14:00:08;9.17;;;8.27;;
79261;SDS011;68699;48.220;16.358;2023-11-19T14:02:40;9.10;;;8.20;;
79261;SDS011;68699;48.220;16.358;2023-11-19T14:05:07;8.63;;;7.83;;
79261;SDS011;68699;48.220;16.358;2023-11-19T14:07:33;8.87;;;7.87;;
79261;SDS011;68699;48.220;16.358;2023-11-19T14:09:59;9.43;;;7.77;;
79261;SDS011;68699;48.220;16.358;2023-11-19T14:12:25;8.10;;;7.30;;
79261;SDS011;68699;48.220;16.358;2023-11-19T14:14:51;9.53;;;8.63;;
79261;SDS011;68699;48.220;16.358;2023-11-19T14:17:17;9.30;;;8.40;;
79261;SDS011;68699;48.220;16.358;2023-11-19T14:19:43;9.37;;;8.47;;
79261;SDS011;68699;48.220;16.358;2023-11-19T14:22:10;9.63;;;8.70;;
79261;SDS011;68699;48.220;16.358;2023-11-19T14:24:36;10.30;;;9.20;;
79261;SDS011;68699;48.220;16.358;2023-11-19T14:27:03;11.07;;;9.90;;
79261;SDS011;68699;48.220;16.358;2023-11-19T14:29:29;9.83;;;8.83;;
79261;SDS011;68699;48.220;16.358;2023-11-19T14:31:55;10.90;;;9.90;;
79261;SDS011;68699;48.220;16.358;2023-11-19T14:34:21;10.03;;;8.97;;
79261;SDS011;68699;48.220;16.358;2023-11-19T14:36:48;9.73;;;8.83;;
79261;SDS011;68699;48.220;16.358;2023-11-19T14:39:14;10.63;;;9.53;;
79261;SDS011;68699;48.220;16.358;2023-11-19T14:41:40;10.97;;;9.87;;
79261;SDS011;68699;48.220;16.358;2023-11-19T14:44:08;10.40;;;9.40;;